createdAt,value
2019-03-28T00:00:35.103Z,5.42
2019-03-28T00:01:39.717Z,5.15
2019-03-28T00:02:44.085Z,5.65
2019-03-28T00:03:48.849Z,5.37
2019-03-28T00:04:53.380Z,5.80
2019-03-28T00:05:58.190Z,5.55
2019-03-28T00:07:02.630Z,5.55
2019-03-28T00:08:07.151Z,6.03
2019-03-28T00:09:11.604Z,5.55
2019-03-28T00:10:16.248Z,5.83
2019-03-28T00:11:20.760Z,6.10
2019-03-28T00:12:25.200Z,6.08
2019-03-28T00:13:30.121Z,5.85
2019-03-28T00:14:34.570Z,5.92
2019-03-28T00:15:39.015Z,6.50
2019-03-28T00:16:43.382Z,6.33
2019-03-28T00:17:47.742Z,5.30
2019-03-28T00:18:52.180Z,5.62
2019-03-28T00:19:56.682Z,5.35
2019-03-28T00:21:01.483Z,5.67
2019-03-28T00:22:06.456Z,5.30
2019-03-28T00:23:21.097Z,5.33
2019-03-28T00:24:29.011Z,5.40
2019-03-28T00:25:33.540Z,5.35
2019-03-28T00:26:38.344Z,5.53
2019-03-28T00:27:42.791Z,5.37
2019-03-28T00:28:47.491Z,5.28
2019-03-28T00:29:52.431Z,5.70
2019-03-28T00:30:57.146Z,5.20
2019-03-28T00:32:01.520Z,5.55
2019-03-28T00:33:06.293Z,6.10
2019-03-28T00:34:11.095Z,6.15
2019-03-28T00:35:16.013Z,5.47
2019-03-28T00:36:21.025Z,5.97
2019-03-28T00:37:25.971Z,6.33
2019-03-28T00:38:30.503Z,7.28
2019-03-28T00:39:35.020Z,6.80
2019-03-28T00:40:39.397Z,6.90
2019-03-28T00:41:44.205Z,7.28
2019-03-28T00:42:48.657Z,6.67
2019-03-28T00:43:53.275Z,7.55
2019-03-28T00:44:57.685Z,6.45
2019-03-28T00:46:02.447Z,6.05
2019-03-28T00:47:06.898Z,5.10
2019-03-28T00:48:11.465Z,6.25
2019-03-28T00:49:15.994Z,5.65
2019-03-28T00:50:20.619Z,5.70
2019-03-28T00:51:25.643Z,5.65
2019-03-28T00:52:30.160Z,6.10
2019-03-28T00:53:34.615Z,5.85
2019-03-28T00:54:39.441Z,5.53
2019-03-28T00:55:43.987Z,6.00
2019-03-28T00:56:48.539Z,6.28
2019-03-28T00:57:53.334Z,5.50
2019-03-28T00:58:57.867Z,6.58
2019-03-28T01:00:02.889Z,5.62
2019-03-28T01:01:07.713Z,6.17
2019-03-28T01:02:12.558Z,6.15
2019-03-28T01:03:17.010Z,5.70
2019-03-28T01:04:21.824Z,5.58
2019-03-28T01:05:26.411Z,5.30
2019-03-28T01:06:31.198Z,5.60
2019-03-28T01:07:35.745Z,5.50
2019-03-28T01:08:40.529Z,6.05
2019-03-28T01:09:45.366Z,5.78
2019-03-28T01:10:49.920Z,5.33
2019-03-28T01:11:54.631Z,5.70
2019-03-28T01:12:59.083Z,5.30
2019-03-28T01:14:03.625Z,5.75
2019-03-28T01:15:08.664Z,6.08
2019-03-28T01:16:13.117Z,6.08
2019-03-28T01:17:18.051Z,5.83
2019-03-28T01:18:23.069Z,6.45
2019-03-28T01:19:27.809Z,6.05
2019-03-28T01:20:32.289Z,5.85
2019-03-28T01:21:36.912Z,6.67
2019-03-28T01:22:41.366Z,6.97
2019-03-28T01:27:53.513Z,6.25
2019-03-28T01:28:58.321Z,5.42
2019-03-28T01:30:03.103Z,5.90
2019-03-28T01:31:07.802Z,5.60
2019-03-28T01:32:12.326Z,5.42
2019-03-28T01:33:16.700Z,5.30
2019-03-28T01:34:21.429Z,5.85
2019-03-28T01:35:26.457Z,5.33
2019-03-28T01:36:30.837Z,5.53
2019-03-28T01:37:35.360Z,5.42
2019-03-28T01:38:40.110Z,5.42
2019-03-28T01:39:44.865Z,5.45
2019-03-28T01:40:50.150Z,5.35
2019-03-28T01:41:54.837Z,5.47
2019-03-28T01:42:59.289Z,5.28
2019-03-28T01:44:04.021Z,5.60
2019-03-28T01:45:08.865Z,5.50
2019-03-28T01:46:13.648Z,5.65
2019-03-28T01:47:18.373Z,5.22
2019-03-28T01:48:23.368Z,5.45
2019-03-28T01:49:28.484Z,5.97
2019-03-28T01:50:33.022Z,5.22
2019-03-28T01:51:37.546Z,4.97
2019-03-28T01:52:42.822Z,5.37
2019-03-28T01:53:47.690Z,5.17
2019-03-28T01:54:52.144Z,5.83
2019-03-28T01:55:57.098Z,5.28
2019-03-28T01:57:10.966Z,5.42
2019-03-28T01:58:08.042Z,5.65
2019-03-28T01:59:12.493Z,5.03
2019-03-28T02:00:17.791Z,5.50
2019-03-28T02:01:22.250Z,5.00
2019-03-28T02:02:26.778Z,5.45
2019-03-28T02:03:31.310Z,5.25
2019-03-28T02:04:35.998Z,5.40
2019-03-28T02:05:40.548Z,5.37
2019-03-28T02:06:45.316Z,5.65
2019-03-28T02:07:50.350Z,5.33
2019-03-28T02:08:54.886Z,6.08
2019-03-28T02:10:00.286Z,5.30
2019-03-28T02:11:05.048Z,5.58
2019-03-28T02:12:10.065Z,5.95
2019-03-28T02:13:14.848Z,5.72
2019-03-28T02:14:19.668Z,5.53
2019-03-28T02:15:24.953Z,6.00
2019-03-28T02:16:30.005Z,5.47
2019-03-28T02:17:34.716Z,5.37
2019-03-28T02:18:39.498Z,5.78
2019-03-28T02:19:45.153Z,6.17
2019-03-28T02:20:49.824Z,5.83
2019-03-28T02:21:54.349Z,6.53
2019-03-28T02:22:59.634Z,6.17
2019-03-28T02:24:04.160Z,6.42
2019-03-28T02:25:08.711Z,6.20
2019-03-28T02:26:13.921Z,6.00
2019-03-28T02:27:23.854Z,6.72
2019-03-28T02:28:25.111Z,6.37
2019-03-28T02:29:29.728Z,5.67
2019-03-28T02:30:34.786Z,6.17
2019-03-28T02:31:39.497Z,6.35
2019-03-28T02:32:44.275Z,6.53
2019-03-28T02:33:48.798Z,7.22
2019-03-28T02:34:53.532Z,7.70
2019-03-28T02:35:58.840Z,8.28
2019-03-28T02:37:03.551Z,7.85
2019-03-28T02:38:08.334Z,7.55
2019-03-28T02:39:13.089Z,7.45
2019-03-28T02:40:17.795Z,7.75
2019-03-28T02:41:22.537Z,7.20
2019-03-28T02:42:27.952Z,7.55
2019-03-28T02:43:32.642Z,7.50
2019-03-28T02:44:37.595Z,6.92
2019-03-28T02:45:42.790Z,6.15
2019-03-28T02:46:47.562Z,6.05
2019-03-28T02:47:52.336Z,5.70
2019-03-28T02:48:56.958Z,6.03
2019-03-28T02:50:01.404Z,6.03
2019-03-28T02:51:06.206Z,6.03
2019-03-28T02:52:10.994Z,6.10
2019-03-28T02:53:15.947Z,6.50
2019-03-28T02:54:20.715Z,6.28
2019-03-28T02:55:25.239Z,6.50
2019-03-28T02:56:30.011Z,5.87
2019-03-28T02:57:41.762Z,6.05
2019-03-28T02:58:42.249Z,6.00
2019-03-28T02:59:47.023Z,6.17
2019-03-28T03:00:51.908Z,5.78
2019-03-28T03:01:56.375Z,5.83
2019-03-28T03:03:01.396Z,6.08
2019-03-28T03:04:06.091Z,6.55
2019-03-28T03:05:10.633Z,6.80
2019-03-28T03:06:15.397Z,6.08
2019-03-28T03:07:20.412Z,5.55
2019-03-28T03:08:25.174Z,6.05
2019-03-28T03:09:29.945Z,6.28
2019-03-28T03:10:34.960Z,5.70
2019-03-28T03:11:42.712Z,5.65
2019-03-28T03:12:46.454Z,5.87
2019-03-28T03:13:51.156Z,5.72
2019-03-28T03:14:55.932Z,5.47
2019-03-28T03:16:01.268Z,5.95
2019-03-28T03:17:06.069Z,6.17
2019-03-28T03:18:10.759Z,5.72
2019-03-28T03:19:16.235Z,5.58
2019-03-28T03:20:21.002Z,6.28
2019-03-28T03:21:25.712Z,5.70
2019-03-28T03:22:30.492Z,5.78
2019-03-28T03:23:35.190Z,6.00
2019-03-28T03:24:39.742Z,6.45
2019-03-28T03:25:44.509Z,6.37
2019-03-28T03:26:49.587Z,7.03
2019-03-28T03:27:58.431Z,7.20
2019-03-28T03:29:01.669Z,7.65
2019-03-28T03:30:06.909Z,6.30
2019-03-28T03:31:11.513Z,7.08
2019-03-28T03:32:15.957Z,6.45
2019-03-28T03:33:20.707Z,6.97
2019-03-28T03:34:25.304Z,6.40
2019-03-28T03:35:29.748Z,6.65
2019-03-28T03:36:34.771Z,6.17
2019-03-28T03:37:39.583Z,5.78
2019-03-28T03:38:44.028Z,6.25
2019-03-28T03:39:49.051Z,5.85
2019-03-28T03:40:54.738Z,6.28
2019-03-28T03:42:00.038Z,6.47
2019-03-28T03:43:04.808Z,6.22
2019-03-28T03:44:09.591Z,6.20
2019-03-28T03:45:14.123Z,5.95
2019-03-28T03:46:18.646Z,5.62
2019-03-28T03:47:23.096Z,5.85
2019-03-28T03:48:27.968Z,12.90
2019-03-28T03:49:32.745Z,6.17
2019-03-28T03:50:37.584Z,5.78
2019-03-28T03:51:46.217Z,5.75
2019-03-28T03:52:48.882Z,5.78
2019-03-28T03:53:53.840Z,6.25
2019-03-28T03:54:58.658Z,6.05
2019-03-28T03:56:03.413Z,6.05
2019-03-28T03:57:08.186Z,5.55
2019-03-28T03:58:16.081Z,6.08
2019-03-28T03:59:19.718Z,6.00
2019-03-28T04:00:34.296Z,5.53
2019-03-28T04:01:38.820Z,6.03
2019-03-28T04:02:43.274Z,5.85
2019-03-28T04:03:48.393Z,5.67
2019-03-28T04:04:56.601Z,5.30
2019-03-28T04:05:59.524Z,5.65
2019-03-28T04:07:04.309Z,5.92
2019-03-28T04:08:09.264Z,5.33
2019-03-28T04:09:13.787Z,5.62
2019-03-28T04:10:18.490Z,6.08
2019-03-28T04:11:22.863Z,5.62
2019-03-28T04:12:27.556Z,5.60
2019-03-28T04:13:32.770Z,5.47
2019-03-28T04:14:37.645Z,5.80
2019-03-28T04:15:42.597Z,6.25
2019-03-28T04:16:47.629Z,5.95
2019-03-28T04:17:52.882Z,6.00
2019-03-28T04:18:57.562Z,5.85
2019-03-28T04:20:02.146Z,5.95
2019-03-28T04:21:06.941Z,5.72
2019-03-28T04:22:11.718Z,6.00
2019-03-28T04:23:16.684Z,6.47
2019-03-28T04:24:21.938Z,6.25
2019-03-28T04:25:27.116Z,6.72
2019-03-28T04:26:32.301Z,7.40
2019-03-28T04:27:36.684Z,7.10
2019-03-28T04:28:41.427Z,7.22
2019-03-28T04:29:46.206Z,7.70
2019-03-28T04:30:50.905Z,6.80
2019-03-28T04:31:55.675Z,7.12
2019-03-28T04:33:00.128Z,7.40
2019-03-28T04:34:07.819Z,6.97
2019-03-28T04:35:11.423Z,8.45
2019-03-28T04:36:16.130Z,10.70
2019-03-28T04:37:20.657Z,12.70
2019-03-28T04:38:25.700Z,13.05
2019-03-28T04:39:30.569Z,13.18
2019-03-28T04:40:34.939Z,12.63
2019-03-28T04:41:39.494Z,12.50
2019-03-28T04:42:45.960Z,11.93
2019-03-28T04:43:51.919Z,12.70
2019-03-28T04:44:57.032Z,11.83
2019-03-28T04:46:01.742Z,10.15
2019-03-28T04:47:06.450Z,10.70
2019-03-28T04:48:11.150Z,12.15
2019-03-28T04:49:16.105Z,12.33
2019-03-28T04:50:20.639Z,12.05
2019-03-28T04:51:25.345Z,10.48
2019-03-28T04:52:31.950Z,10.23
2019-03-28T04:53:37.526Z,10.10
2019-03-28T04:54:42.723Z,9.63
2019-03-28T04:55:47.748Z,9.33
2019-03-28T04:56:52.443Z,7.65
2019-03-28T04:57:57.161Z,7.00
2019-03-28T04:59:01.877Z,7.55
2019-03-28T05:00:07.439Z,7.30
2019-03-28T05:01:12.385Z,6.95
2019-03-28T05:02:17.019Z,7.40
2019-03-28T05:03:21.463Z,6.83
2019-03-28T05:04:26.171Z,7.15
2019-03-28T05:05:30.945Z,7.17
2019-03-28T05:06:38.016Z,7.17
2019-03-28T05:07:42.400Z,7.80
2019-03-28T05:08:47.460Z,7.22
2019-03-28T05:09:52.505Z,6.67
2019-03-28T05:10:57.290Z,6.70
2019-03-28T05:12:01.729Z,7.30
2019-03-28T05:13:06.746Z,7.03
2019-03-28T05:14:11.398Z,6.70
2019-03-28T05:15:16.266Z,27.65
2019-03-28T05:16:20.885Z,7.20
2019-03-28T05:17:25.342Z,6.62
2019-03-28T05:18:30.052Z,8.13
2019-03-28T05:19:34.677Z,7.45
2019-03-28T05:20:39.211Z,7.50
2019-03-28T05:21:43.666Z,6.22
2019-03-28T05:22:48.558Z,6.95
2019-03-28T05:23:53.642Z,6.83
2019-03-28T05:24:58.731Z,7.28
2019-03-28T05:26:03.597Z,6.75
2019-03-28T05:27:08.366Z,7.53
2019-03-28T05:28:13.238Z,6.95
2019-03-28T05:29:17.936Z,6.92
2019-03-28T05:30:22.707Z,7.45
2019-03-28T05:31:27.397Z,7.10
2019-03-28T05:32:32.274Z,6.92
2019-03-28T05:33:36.650Z,7.05
2019-03-28T05:34:41.119Z,7.12
2019-03-28T05:35:45.570Z,7.20
2019-03-28T05:36:52.107Z,7.20
2019-03-28T05:37:56.641Z,7.10
2019-03-28T05:39:01.433Z,8.08
2019-03-28T05:40:07.029Z,8.43
2019-03-28T05:41:11.552Z,8.40
2019-03-28T05:42:16.323Z,8.03
2019-03-28T05:43:21.381Z,8.15
2019-03-28T05:44:26.262Z,7.85
2019-03-28T05:45:31.208Z,7.80
2019-03-28T05:46:35.908Z,8.03
2019-03-28T05:47:40.438Z,7.87
2019-03-28T05:48:45.306Z,7.78
2019-03-28T05:49:50.449Z,8.20
2019-03-28T05:50:55.644Z,7.28
2019-03-28T05:52:00.425Z,7.45
2019-03-28T05:53:05.193Z,9.08
2019-03-28T05:54:09.911Z,10.38
2019-03-28T05:55:14.693Z,10.18
2019-03-28T05:56:19.146Z,11.53
2019-03-28T05:57:23.846Z,12.10
2019-03-28T05:58:28.628Z,12.88
2019-03-28T05:59:33.644Z,12.33
2019-03-28T06:00:39.106Z,11.40
2019-03-28T06:01:44.789Z,10.72
2019-03-28T06:02:50.460Z,11.22
2019-03-28T06:03:55.672Z,10.80
2019-03-28T06:05:00.541Z,9.45
2019-03-28T06:06:05.616Z,9.38
2019-03-28T06:07:10.548Z,8.00
2019-03-28T06:08:15.265Z,7.90
2019-03-28T06:09:20.094Z,7.58
2019-03-28T06:10:24.889Z,7.40
2019-03-28T06:11:29.847Z,7.90
2019-03-28T06:12:34.294Z,8.48
2019-03-28T06:13:39.153Z,7.80
2019-03-28T06:14:43.697Z,8.23
2019-03-28T06:15:48.331Z,8.05
2019-03-28T06:16:52.785Z,8.20
2019-03-28T06:17:57.553Z,8.13
2019-03-28T06:19:02.500Z,8.18
2019-03-28T06:20:08.149Z,7.92
2019-03-28T06:21:13.357Z,8.05
2019-03-28T06:22:18.390Z,8.33
2019-03-28T06:23:23.354Z,8.60
2019-03-28T06:24:28.212Z,8.33
2019-03-28T06:25:33.249Z,7.90
2019-03-28T06:26:38.198Z,7.47
2019-03-28T06:27:43.082Z,8.23
2019-03-28T06:28:48.094Z,8.13
2019-03-28T06:29:52.709Z,7.53
2019-03-28T06:30:57.554Z,8.10
2019-03-28T06:32:02.555Z,7.70
2019-03-28T06:33:08.517Z,7.95
2019-03-28T06:34:13.575Z,7.65
2019-03-28T06:35:20.526Z,8.50
2019-03-28T06:36:26.675Z,8.23
2019-03-28T06:37:32.425Z,8.80
2019-03-28T06:38:36.948Z,8.83
2019-03-28T06:39:42.052Z,9.05
2019-03-28T06:40:47.265Z,7.97
2019-03-28T06:41:51.791Z,7.90
2019-03-28T06:42:56.624Z,8.30
2019-03-28T06:44:01.416Z,8.13
2019-03-28T06:45:06.793Z,8.50
2019-03-28T06:46:11.320Z,8.50
2019-03-28T06:47:16.454Z,8.03
2019-03-28T06:48:21.224Z,7.90
2019-03-28T06:49:25.928Z,7.45
2019-03-28T06:50:30.645Z,7.78
2019-03-28T06:51:35.450Z,8.83
2019-03-28T06:52:40.517Z,8.50
2019-03-28T06:53:45.346Z,8.85
2019-03-28T06:54:49.809Z,8.35
2019-03-28T06:55:54.529Z,9.38
2019-03-28T06:56:59.057Z,8.25
2019-03-28T06:58:03.663Z,8.80
2019-03-28T06:59:08.379Z,9.40
2019-03-28T07:00:13.484Z,8.30
2019-03-28T07:01:18.262Z,8.10
2019-03-28T07:02:22.834Z,8.25
2019-03-28T07:03:27.756Z,8.95
2019-03-28T07:04:32.461Z,8.75
2019-03-28T07:05:36.927Z,9.20
2019-03-28T07:06:41.952Z,8.40
2019-03-28T07:07:46.475Z,8.40
2019-03-28T07:08:51.502Z,9.10
2019-03-28T07:09:56.052Z,9.20
2019-03-28T07:11:01.008Z,8.65
2019-03-28T07:12:06.044Z,8.93
2019-03-28T07:13:10.927Z,8.95
2019-03-28T07:14:15.302Z,9.13
2019-03-28T07:15:20.481Z,9.30
2019-03-28T07:16:25.428Z,8.68
2019-03-28T07:17:29.887Z,9.13
2019-03-28T07:18:34.368Z,9.70
2019-03-28T07:19:39.714Z,10.13
2019-03-28T07:20:44.455Z,9.23
2019-03-28T07:21:49.141Z,9.60
2019-03-28T07:22:54.262Z,9.88
2019-03-28T07:23:59.063Z,10.58
2019-03-28T07:25:03.651Z,10.80
2019-03-28T07:26:08.131Z,10.32
2019-03-28T07:27:12.671Z,9.80
2019-03-28T07:28:17.137Z,9.85
2019-03-28T07:29:21.675Z,10.85
2019-03-28T07:30:26.486Z,11.03
2019-03-28T07:31:30.972Z,11.18
2019-03-28T07:32:36.017Z,10.23
2019-03-28T07:33:40.519Z,10.50
2019-03-28T07:34:45.487Z,9.40
2019-03-28T07:35:50.023Z,9.98
2019-03-28T07:36:54.488Z,9.28
2019-03-28T07:37:58.954Z,9.75
2019-03-28T07:39:04.057Z,10.08
2019-03-28T07:40:09.808Z,9.75
2019-03-28T07:41:16.461Z,9.30
2019-03-28T07:42:21.517Z,9.45
2019-03-28T07:43:26.045Z,9.85
2019-03-28T07:44:30.757Z,10.35
2019-03-28T07:45:35.308Z,9.75
2019-03-28T07:46:40.210Z,10.93
2019-03-28T07:47:44.817Z,9.63
2019-03-28T07:48:49.428Z,10.20
2019-03-28T07:49:54.467Z,9.73
2019-03-28T07:50:59.273Z,10.20
2019-03-28T07:52:04.818Z,9.95
2019-03-28T07:53:09.274Z,10.68
2019-03-28T07:54:13.820Z,10.55
2019-03-28T07:55:18.377Z,10.23
2019-03-28T07:56:23.336Z,10.70
2019-03-28T07:57:28.163Z,10.50
2019-03-28T07:58:32.703Z,9.90
2019-03-28T07:59:37.639Z,10.30
2019-03-28T08:00:42.192Z,10.63
2019-03-28T08:01:46.723Z,10.78
2019-03-28T08:02:51.267Z,10.78
2019-03-28T08:03:56.062Z,10.58
2019-03-28T08:05:01.884Z,10.68
2019-03-28T08:06:06.738Z,10.28
2019-03-28T08:07:11.463Z,10.05
2019-03-28T08:08:16.168Z,10.28
2019-03-28T08:09:20.712Z,10.25
2019-03-28T08:10:25.500Z,10.78
2019-03-28T08:11:30.313Z,10.90
2019-03-28T08:12:34.823Z,10.23
2019-03-28T08:13:39.603Z,10.65
2019-03-28T08:14:44.387Z,10.63
2019-03-28T08:15:49.180Z,10.75
2019-03-28T08:16:53.711Z,10.48
2019-03-28T08:17:58.478Z,10.53
2019-03-28T08:19:03.185Z,11.20
2019-03-28T08:20:09.131Z,11.00
2019-03-28T08:21:14.098Z,10.98
2019-03-28T08:22:18.687Z,10.68
2019-03-28T08:23:23.222Z,11.00
2019-03-28T08:24:27.680Z,10.93
2019-03-28T08:25:32.571Z,11.43
2019-03-28T08:26:37.865Z,10.75
2019-03-28T08:27:43.215Z,10.68
2019-03-28T08:28:48.167Z,10.20
2019-03-28T08:29:53.203Z,10.78
2019-03-28T08:30:58.002Z,10.30
2019-03-28T08:32:03.363Z,10.65
2019-03-28T08:33:08.609Z,10.35
2019-03-28T08:34:13.410Z,11.75
2019-03-28T08:35:18.181Z,11.65
2019-03-28T08:36:23.120Z,11.18
2019-03-28T08:37:28.098Z,11.35
2019-03-28T08:38:34.396Z,12.13
2019-03-28T08:39:39.292Z,12.03
2019-03-28T08:40:44.414Z,11.10
2019-03-28T08:41:50.594Z,11.18
2019-03-28T08:42:55.873Z,10.75
2019-03-28T08:44:00.344Z,11.38
2019-03-28T08:45:05.316Z,11.48
2019-03-28T08:46:10.303Z,11.35
2019-03-28T08:47:15.530Z,11.45
2019-03-28T08:48:20.498Z,10.72
2019-03-28T08:49:25.719Z,11.65
2019-03-28T08:50:30.417Z,9.95
2019-03-28T08:51:35.707Z,11.00
2019-03-28T08:52:40.507Z,11.65
2019-03-28T08:53:45.287Z,11.12
2019-03-28T08:54:49.753Z,10.65
2019-03-28T08:55:54.555Z,10.75
2019-03-28T08:56:59.359Z,10.63
2019-03-28T08:58:05.096Z,11.15
2019-03-28T08:59:09.560Z,11.90
2019-03-28T09:00:16.631Z,10.70
2019-03-28T09:01:20.884Z,10.43
2019-03-28T09:02:25.683Z,11.30
2019-03-28T09:03:30.784Z,10.50
2019-03-28T09:04:35.833Z,10.93
2019-03-28T09:05:40.877Z,11.20
2019-03-28T09:06:45.938Z,12.28
2019-03-28T09:07:50.902Z,11.18
2019-03-28T09:08:55.616Z,11.00
2019-03-28T09:10:00.395Z,10.70
2019-03-28T09:11:04.978Z,11.20
2019-03-28T09:12:09.513Z,11.80
2019-03-28T09:13:14.283Z,11.05
2019-03-28T09:14:18.823Z,11.65
2019-03-28T09:15:23.871Z,10.60
2019-03-28T09:16:28.752Z,11.08
2019-03-28T09:17:33.844Z,11.18
2019-03-28T09:18:38.685Z,11.15
2019-03-28T09:19:48.023Z,11.43
2019-03-28T09:20:52.665Z,11.18
2019-03-28T09:21:57.471Z,11.97
2019-03-28T09:23:02.247Z,11.95
2019-03-28T09:24:06.789Z,11.78
2019-03-28T09:25:12.411Z,12.43
2019-03-28T09:26:17.027Z,11.97
2019-03-28T09:27:21.811Z,11.78
2019-03-28T09:28:26.600Z,11.70
2019-03-28T09:29:31.388Z,11.88
2019-03-28T09:30:47.924Z,10.75
2019-03-28T09:31:46.653Z,11.50
2019-03-28T09:32:51.443Z,11.63
2019-03-28T09:33:56.401Z,11.00
2019-03-28T09:35:00.940Z,11.18
2019-03-28T09:36:05.584Z,11.48
2019-03-28T09:37:10.137Z,12.00
2019-03-28T09:38:14.679Z,11.57
2019-03-28T09:39:19.211Z,11.97
2019-03-28T09:40:24.175Z,11.30
2019-03-28T09:41:28.922Z,11.22
2019-03-28T09:42:33.637Z,11.57
2019-03-28T09:43:38.016Z,10.75
2019-03-28T09:44:42.553Z,10.80
2019-03-28T09:45:47.328Z,12.50
2019-03-28T09:46:52.136Z,11.38
2019-03-28T09:47:56.751Z,11.68
2019-03-28T09:49:01.538Z,11.33
2019-03-28T09:50:06.567Z,11.00
2019-03-28T09:51:11.112Z,10.95
2019-03-28T09:52:15.902Z,10.90
2019-03-28T09:53:20.436Z,11.30
2019-03-28T09:54:25.227Z,10.45
2019-03-28T09:55:30.090Z,10.28
2019-03-28T09:56:34.834Z,10.48
2019-03-28T09:57:39.221Z,11.18
2019-03-28T09:58:44.525Z,10.43
2019-03-28T09:59:49.297Z,10.70
2019-03-28T10:01:02.688Z,10.82
2019-03-28T10:02:01.955Z,11.03
2019-03-28T10:03:06.770Z,11.05
2019-03-28T10:04:11.303Z,10.98
2019-03-28T10:05:15.764Z,11.60
2019-03-28T10:06:20.227Z,11.45
2019-03-28T10:07:25.028Z,11.97
2019-03-28T10:08:29.736Z,11.97
2019-03-28T10:09:35.515Z,11.95
2019-03-28T10:10:40.135Z,12.20
2019-03-28T10:11:45.129Z,11.78
2019-03-28T10:12:49.931Z,11.40
2019-03-28T10:13:54.465Z,11.12
2019-03-28T10:14:59.267Z,12.18
2019-03-28T10:16:04.060Z,11.30
2019-03-28T10:17:08.865Z,11.97
2019-03-28T10:18:13.656Z,12.37
2019-03-28T10:19:18.116Z,12.10
2019-03-28T10:20:22.657Z,12.03
2019-03-28T10:21:27.488Z,11.78
2019-03-28T10:22:32.432Z,11.45
2019-03-28T10:23:39.702Z,11.60
2019-03-28T10:24:43.410Z,11.55
2019-03-28T10:25:48.208Z,11.45
2019-03-28T10:26:53.309Z,11.43
2019-03-28T10:27:58.099Z,11.33
2019-03-28T10:29:02.936Z,11.80
2019-03-28T10:30:09.346Z,11.05
2019-03-28T10:31:16.725Z,11.00
2019-03-28T10:32:20.876Z,11.65
2019-03-28T10:33:25.594Z,10.50
2019-03-28T10:34:30.833Z,10.75
2019-03-28T10:35:35.289Z,10.95
2019-03-28T10:36:39.890Z,10.93
2019-03-28T10:37:44.353Z,10.65
2019-03-28T10:38:49.195Z,11.28
2019-03-28T10:39:53.949Z,11.55
2019-03-28T10:40:58.775Z,10.38
2019-03-28T10:42:03.364Z,10.08
2019-03-28T10:43:08.509Z,9.68
2019-03-28T10:44:13.271Z,10.15
2019-03-28T10:45:17.848Z,10.10
2019-03-28T10:46:22.740Z,10.13
2019-03-28T10:47:27.442Z,9.53
2019-03-28T10:48:32.033Z,9.48
2019-03-28T10:49:36.861Z,9.95
2019-03-28T10:50:45.531Z,9.28
2019-03-28T10:51:48.698Z,8.58
2019-03-28T10:52:53.265Z,8.20
2019-03-28T10:53:57.764Z,7.95
2019-03-28T10:55:02.528Z,7.95
2019-03-28T10:56:21.031Z,7.92
2019-03-28T10:57:28.983Z,6.83
2019-03-28T10:58:20.470Z,6.25
2019-03-28T10:59:25.708Z,6.12
2019-03-28T11:00:30.492Z,6.10
2019-03-28T11:01:47.995Z,5.95
2019-03-28T11:02:41.891Z,5.67
2019-03-28T11:03:46.640Z,6.58
2019-03-28T11:04:51.745Z,6.12
2019-03-28T11:05:56.241Z,6.12
2019-03-28T11:07:01.081Z,6.53
2019-03-28T11:08:05.916Z,6.10
2019-03-28T11:09:10.706Z,6.25
2019-03-28T11:10:15.637Z,5.95
2019-03-28T11:11:20.481Z,5.75
2019-03-28T11:12:25.319Z,5.53
2019-03-28T11:13:30.150Z,6.20
2019-03-28T11:14:34.650Z,7.45
2019-03-28T11:15:39.737Z,5.95
2019-03-28T11:16:47.978Z,6.15
2019-03-28T11:17:51.308Z,5.97
2019-03-28T11:18:56.141Z,5.87
2019-03-28T11:20:00.823Z,8.10
2019-03-28T11:21:05.828Z,7.03
2019-03-28T11:22:10.622Z,6.08
2019-03-28T11:23:15.117Z,6.40
2019-03-28T11:24:19.797Z,6.47
2019-03-28T11:25:24.629Z,6.12
2019-03-28T11:26:29.380Z,6.45
2019-03-28T11:27:34.069Z,6.30
2019-03-28T11:28:38.830Z,6.75
2019-03-28T11:29:43.850Z,6.28
2019-03-28T11:30:48.937Z,6.30
2019-03-28T11:31:53.517Z,6.62
2019-03-28T11:32:58.545Z,6.78
2019-03-28T11:34:03.373Z,6.75
2019-03-28T11:35:08.441Z,7.20
2019-03-28T11:36:13.545Z,6.97
2019-03-28T11:37:25.839Z,6.47
2019-03-28T11:38:24.552Z,6.20
2019-03-28T11:39:29.309Z,6.90
2019-03-28T11:40:34.073Z,6.67
2019-03-28T11:41:39.484Z,7.28
2019-03-28T11:42:44.514Z,7.33
2019-03-28T11:43:49.086Z,7.03
2019-03-28T11:44:53.662Z,6.92
2019-03-28T11:45:58.413Z,6.90
2019-03-28T11:47:02.994Z,7.17
2019-03-28T11:48:08.155Z,7.40
2019-03-28T11:49:12.735Z,7.00
2019-03-28T11:50:17.465Z,6.87
2019-03-28T11:51:22.305Z,6.20
2019-03-28T11:52:27.075Z,6.95
2019-03-28T11:53:31.581Z,7.60
2019-03-28T11:54:36.264Z,7.80
2019-03-28T11:55:41.102Z,7.25
2019-03-28T11:56:46.391Z,7.03
2019-03-28T11:57:51.439Z,6.57
2019-03-28T11:58:56.173Z,6.13
2019-03-28T12:00:01.423Z,6.43
2019-03-28T12:01:05.984Z,6.80
2019-03-28T12:02:19.858Z,6.80
2019-03-28T12:03:17.119Z,6.20
2019-03-28T12:04:21.880Z,6.53
2019-03-28T12:05:26.289Z,6.23
2019-03-28T12:06:31.117Z,6.53
2019-03-28T12:07:35.639Z,6.80
2019-03-28T12:08:40.378Z,5.90
2019-03-28T12:09:45.456Z,5.77
2019-03-28T12:10:50.234Z,5.63
2019-03-28T12:11:55.244Z,6.17
2019-03-28T12:13:00.364Z,5.65
2019-03-28T12:14:04.934Z,5.60
2019-03-28T12:15:10.015Z,5.70
2019-03-28T12:16:14.897Z,7.78
2019-03-28T12:17:19.650Z,5.43
2019-03-28T12:18:25.216Z,5.92
2019-03-28T12:19:30.050Z,5.87
2019-03-28T12:20:34.873Z,5.57
2019-03-28T12:21:39.892Z,6.30
2019-03-28T12:22:44.993Z,5.57
2019-03-28T12:23:49.827Z,5.60
2019-03-28T12:24:54.649Z,5.60
2019-03-28T12:25:59.685Z,4.83
2019-03-28T12:27:04.261Z,6.07
2019-03-28T12:28:09.106Z,6.00
2019-03-28T12:29:13.866Z,5.78
2019-03-28T12:30:18.758Z,6.20
2019-03-28T12:31:23.873Z,6.47
2019-03-28T12:32:28.569Z,6.12
2019-03-28T12:33:33.393Z,5.83
2019-03-28T12:34:37.975Z,6.60
2019-03-28T12:35:42.806Z,7.73
2019-03-28T12:36:48.073Z,6.73
2019-03-28T12:37:52.892Z,6.28
2019-03-28T12:38:57.583Z,6.27
2019-03-28T12:40:02.135Z,5.40
2019-03-28T12:41:06.949Z,5.53
2019-03-28T12:42:11.448Z,5.72
2019-03-28T12:43:16.302Z,6.17
2019-03-28T12:46:35.994Z,5.12
2019-03-28T12:47:42.802Z,5.77
2019-03-28T12:48:47.678Z,5.55
2019-03-28T12:49:52.606Z,6.25
2019-03-28T12:51:52.909Z,6.33
2019-03-28T12:52:58.439Z,5.22
2019-03-28T12:54:02.974Z,6.40
2019-03-28T12:55:08.964Z,5.33
2019-03-28T12:56:13.371Z,5.00
2019-03-28T12:57:18.105Z,4.70
2019-03-28T12:58:22.849Z,5.33
2019-03-28T12:59:27.523Z,5.33
2019-03-28T13:00:36.087Z,5.90
2019-03-28T13:01:40.649Z,6.03
2019-03-28T13:02:45.203Z,5.87
2019-03-28T13:03:50.247Z,5.10
2019-03-28T13:04:55.062Z,4.90
2019-03-28T13:05:59.539Z,4.70
2019-03-28T13:07:04.032Z,4.50
2019-03-28T13:08:08.618Z,4.67
2019-03-28T13:09:13.172Z,4.70
2019-03-28T13:10:18.104Z,5.90
2019-03-28T13:11:22.587Z,6.17
2019-03-28T13:12:27.439Z,5.37
2019-03-28T13:13:32.120Z,5.10
2019-03-28T13:14:36.794Z,5.62
2019-03-28T13:15:41.530Z,4.20
2019-03-28T13:16:46.322Z,5.03
2019-03-28T13:17:51.041Z,4.33
2019-03-28T13:18:55.794Z,4.62
2019-03-28T13:20:00.450Z,4.40
2019-03-28T13:21:13.239Z,4.15
2019-03-28T13:22:11.902Z,4.13
2019-03-28T13:23:16.573Z,4.10
2019-03-28T13:24:21.238Z,4.28
2019-03-28T13:25:25.975Z,4.10
2019-03-28T13:26:30.452Z,4.40
2019-03-28T13:27:36.564Z,4.13
2019-03-28T13:28:41.419Z,3.80
2019-03-28T13:29:46.143Z,5.30
2019-03-28T13:30:51.451Z,4.22
2019-03-28T13:31:56.189Z,4.50
2019-03-28T13:33:00.595Z,5.33
2019-03-28T13:34:05.932Z,4.17
2019-03-28T13:35:10.749Z,3.90
2019-03-28T13:36:15.303Z,4.27
2019-03-28T13:37:19.966Z,4.40
2019-03-28T13:38:24.862Z,7.23
2019-03-28T13:39:29.282Z,5.80
2019-03-28T13:40:33.755Z,6.00
2019-03-28T13:41:38.495Z,4.33
2019-03-28T13:42:43.554Z,4.50
2019-03-28T13:43:47.966Z,4.20
2019-03-28T13:44:52.921Z,4.53
2019-03-28T13:45:57.683Z,4.60
2019-03-28T13:47:02.419Z,4.27
2019-03-28T13:48:07.259Z,7.30
2019-03-28T13:49:12.204Z,8.23
2019-03-28T13:50:16.991Z,5.83
2019-03-28T13:51:21.470Z,8.03
2019-03-28T13:52:26.463Z,6.00
2019-03-28T13:53:39.221Z,4.80
2019-03-28T13:54:37.495Z,5.30
2019-03-28T13:55:42.310Z,5.17
2019-03-28T13:56:47.122Z,5.23
2019-03-28T13:57:52.355Z,4.93
2019-03-28T13:58:57.434Z,3.57
2019-03-28T14:00:02.462Z,3.10
2019-03-28T14:01:07.130Z,2.97
2019-03-28T14:02:12.390Z,2.80
2019-03-28T14:03:17.301Z,2.90
2019-03-28T14:04:21.789Z,3.00
2019-03-28T14:05:26.448Z,3.07
2019-03-28T14:06:30.887Z,2.90
2019-03-28T14:07:35.245Z,3.53
2019-03-28T14:08:39.662Z,2.80
2019-03-28T14:09:44.579Z,3.00
2019-03-28T14:10:49.058Z,4.63
2019-03-28T14:11:53.984Z,3.00
2019-03-28T14:12:58.537Z,2.90
2019-03-28T14:14:03.209Z,3.20
2019-03-28T14:15:08.232Z,3.10
2019-03-28T14:16:12.892Z,3.00
2019-03-28T14:17:17.296Z,4.00
2019-03-28T14:18:21.954Z,2.70
2019-03-28T14:19:27.016Z,3.23
2019-03-28T14:20:31.563Z,2.60
2019-03-28T14:21:36.123Z,2.90
2019-03-28T14:22:40.632Z,2.87
2019-03-28T14:23:45.559Z,3.07